Time,TemperatureF,DewpointF,PressureIn,WindDirection,WindDirectionDegrees,WindSpeedMPH,WindSpeedGustMPH,Humidity,HourlyPrecipIn,Conditions,Clouds,dailyrainin,SoftwareType,DateUTC
2013-01-31 00:05:00,42.7,43.0,30.34,East,85,2.0,6.0,100,0.00,,,0.00,weatherlink.com 1.10,2013-01-31 08:05:00,
2013-01-31 00:20:00,42.8,43.0,30.35,East,88,5.0,6.0,100,0.00,,,0.00,weatherlink.com 1.10,2013-01-31 08:20:00,
2013-01-31 00:35:00,42.8,43.0,30.34,East,101,0.0,6.0,100,0.00,,,0.00,weatherlink.com 1.10,2013-01-31 08:35:00,
2013-01-31 00:50:00,42.8,43.0,30.35,ESE,102,0.0,5.0,100,0.00,,,0.00,weatherlink.com 1.10,2013-01-31 08:50:00,
2013-01-31 01:05:00,42.8,43.0,30.35,ENE,71,0.0,5.0,100,0.00,,,0.00,weatherlink.com 1.10,2013-01-31 09:05:00,
2013-01-31 01:20:00,42.8,43.0,30.36,ENE,71,0.0,4.0,100,0.00,,,0.00,weatherlink.com 1.10,2013-01-31 09:20:00,
2013-01-31 01:35:00,42.8,43.0,30.35,ENE,71,2.0,4.0,100,0.00,,,0.00,weatherlink.com 1.10,2013-01-31 09:35:00,
2013-01-31 01:50:00,42.7,43.0,30.35,ENE,72,2.0,4.0,100,0.01,,,0.01,weatherlink.com 1.10,2013-01-31 09:50:00,
2013-01-31 02:05:00,42.7,43.0,30.35,ENE,74,0.0,3.0,100,0.01,,,0.01,weatherlink.com 1.10,2013-01-31 10:05:00,
2013-01-31 02:20:00,42.7,43.0,30.35,NNE,13,0.0,4.0,100,0.01,,,0.01,weatherlink.com 1.10,2013-01-31 10:20:00,
2013-01-31 02:35:00,42.6,43.0,30.35,NNE,17,1.0,5.0,100,0.00,,,0.01,weatherlink.com 1.10,2013-01-31 10:35:00,
2013-01-31 02:50:00,42.5,43.0,30.35,NNE,18,0.0,3.0,100,0.00,,,0.01,weatherlink.com 1.10,2013-01-31 10:50:00,
2013-01-31 03:05:00,42.5,43.0,30.35,ENE,76,2.0,3.0,100,0.00,,,0.01,weatherlink.com 1.10,2013-01-31 11:05:00,
2013-01-31 03:20:00,42.4,42.0,30.35,ENE,77,0.0,3.0,100,0.00,,,0.01,weatherlink.com 1.10,2013-01-31 11:20:00,
2013-01-31 03:35:00,42.4,42.0,30.35,ENE,78,3.0,7.0,100,0.00,,,0.01,weatherlink.com 1.10,2013-01-31 11:35:00,
2013-01-31 03:50:00,42.2,42.0,30.35,East,79,5.0,5.0,100,0.00,,,0.01,weatherlink.com 1.10,2013-01-31 11:50:00,
2013-01-31 04:05:00,42.3,42.0,30.35,East,94,5.0,7.0,100,0.00,,,0.01,weatherlink.com 1.10,2013-01-31 12:05:00,
2013-01-31 04:21:00,42.4,42.0,30.35,ESE,102,4.0,7.0,100,0.00,,,0.01,weatherlink.com 1.10,2013-01-31 12:21:00,
2013-01-31 04:35:00,42.5,43.0,30.35,East,80,6.0,7.0,100,0.00,,,0.01,weatherlink.com 1.10,2013-01-31 12:35:00,
2013-01-31 04:50:00,42.7,43.0,30.35,East,92,3.0,6.0,100,0.00,,,0.01,weatherlink.com 1.10,2013-01-31 12:50:00,
2013-01-31 05:05:00,43.0,43.0,30.34,East,80,3.0,10.0,100,0.00,,,0.01,weatherlink.com 1.10,2013-01-31 13:05:00,
2013-01-31 05:20:00,42.6,43.0,30.34,East,88,7.0,8.0,100,0.00,,,0.01,weatherlink.com 1.10,2013-01-31 13:20:00,
2013-01-31 05:35:00,42.5,43.0,30.34,West,276,5.0,7.0,100,0.00,,,0.01,weatherlink.com 1.10,2013-01-31 13:35:00,
2013-01-31 05:51:00,42.9,43.0,30.33,South,177,2.0,7.0,99,0.00,,,0.01,weatherlink.com 1.10,2013-01-31 13:51:00,
2013-01-31 06:05:00,42.7,43.0,30.33,East,91,5.0,10.0,99,0.00,,,0.01,weatherlink.com 1.10,2013-01-31 14:05:00,
2013-01-31 06:20:00,42.4,42.0,30.33,East,87,3.0,8.0,99,0.00,,,0.01,weatherlink.com 1.10,2013-01-31 14:20:00,
2013-01-31 06:35:00,42.4,42.0,30.33,East,98,3.0,9.0,99,0.00,,,0.01,weatherlink.com 1.10,2013-01-31 14:35:00,
2013-01-31 06:50:00,42.5,42.0,30.33,East,92,5.0,8.0,99,0.00,,,0.01,weatherlink.com 1.10,2013-01-31 14:50:00,
2013-01-31 07:05:00,42.7,43.0,30.32,ESE,109,5.0,9.0,99,0.00,,,0.01,weatherlink.com 1.10,2013-01-31 15:05:00,
2013-01-31 07:20:00,42.7,43.0,30.32,ESE,120,7.0,10.0,99,0.00,,,0.01,weatherlink.com 1.10,2013-01-31 15:20:00,
2013-01-31 07:36:00,42.7,43.0,30.32,ESE,111,7.0,13.0,99,0.00,,,0.01,weatherlink.com 1.10,2013-01-31 15:36:00,
2013-01-31 07:51:00,42.7,43.0,30.32,ESE,107,8.0,11.0,99,0.00,,,0.01,weatherlink.com 1.10,2013-01-31 15:51:00,
2013-01-31 08:06:00,42.8,43.0,30.32,ESE,117,10.0,14.0,99,0.01,,,0.02,weatherlink.com 1.10,2013-01-31 16:06:00,
2013-01-31 08:21:00,42.9,43.0,30.32,ESE,123,8.0,13.0,99,0.01,,,0.02,weatherlink.com 1.10,2013-01-31 16:21:00,
2013-01-31 08:36:00,42.9,43.0,30.31,East,99,6.0,15.0,99,0.02,,,0.03,weatherlink.com 1.10,2013-01-31 16:36:00,
2013-01-31 08:51:00,42.8,43.0,30.31,East,93,6.0,11.0,99,0.02,,,0.03,weatherlink.com 1.10,2013-01-31 16:51:00,
2013-01-31 09:06:00,42.9,43.0,30.31,East,97,5.0,14.0,99,0.01,,,0.03,weatherlink.com 1.10,2013-01-31 17:06:00,
2013-01-31 09:21:00,42.9,43.0,30.31,SE,144,9.0,16.0,99,0.01,,,0.03,weatherlink.com 1.10,2013-01-31 17:21:00,
2013-01-31 09:36:00,42.9,43.0,30.30,ESE,107,9.0,15.0,99,0.00,,,0.03,weatherlink.com 1.10,2013-01-31 17:36:00,
2013-01-31 09:54:00,42.9,43.0,30.30,ESE,111,5.0,21.0,99,0.00,,,0.03,weatherlink.com 1.10,2013-01-31 17:54:00,
2013-01-31 10:06:00,42.9,43.0,30.30,East,100,8.0,17.0,99,0.00,,,0.03,weatherlink.com 1.10,2013-01-31 18:06:00,
2013-01-31 10:21:00,42.9,43.0,30.30,SSE,151,9.0,14.0,99,0.00,,,0.03,weatherlink.com 1.10,2013-01-31 18:21:00,
2013-01-31 10:36:00,42.8,43.0,30.31,ESE,115,5.0,19.0,99,0.00,,,0.03,weatherlink.com 1.10,2013-01-31 18:36:00,
2013-01-31 10:51:00,42.9,43.0,30.30,East,95,11.0,15.0,99,0.00,,,0.03,weatherlink.com 1.10,2013-01-31 18:51:00,
2013-01-31 11:06:00,43.0,43.0,30.30,ESE,110,8.0,17.0,100,0.01,,,0.04,weatherlink.com 1.10,2013-01-31 19:06:00,
2013-01-31 11:21:00,42.9,43.0,30.30,ESE,108,8.0,21.0,99,0.01,,,0.04,weatherlink.com 1.10,2013-01-31 19:21:00,
2013-01-31 11:36:00,43.0,43.0,30.29,ESE,119,8.0,15.0,100,0.01,,,0.04,weatherlink.com 1.10,2013-01-31 19:36:00,
2013-01-31 11:51:00,43.0,43.0,30.29,ESE,121,4.0,14.0,100,0.01,,,0.04,weatherlink.com 1.10,2013-01-31 19:51:00,
2013-01-31 12:06:00,43.0,43.0,30.29,ESE,113,12.0,14.0,100,0.00,,,0.04,weatherlink.com 1.10,2013-01-31 20:06:00,
2013-01-31 12:21:00,43.0,43.0,30.29,East,95,11.0,19.0,100,0.00,,,0.04,weatherlink.com 1.10,2013-01-31 20:21:00,
2013-01-31 12:36:00,42.9,43.0,30.29,SSE,148,8.0,15.0,100,0.00,,,0.04,weatherlink.com 1.10,2013-01-31 20:36:00,
2013-01-31 12:51:00,42.8,43.0,30.29,ESE,120,5.0,15.0,100,0.00,,,0.04,weatherlink.com 1.10,2013-01-31 20:51:00,
2013-01-31 13:06:00,42.9,43.0,30.29,East,98,10.0,12.0,100,0.00,,,0.04,weatherlink.com 1.10,2013-01-31 21:06:00,
2013-01-31 13:21:00,43.1,43.0,30.29,ESE,115,5.0,11.0,100,0.00,,,0.04,weatherlink.com 1.10,2013-01-31 21:21:00,
2013-01-31 13:36:00,43.2,43.0,30.29,ESE,107,5.0,11.0,100,0.01,,,0.05,weatherlink.com 1.10,2013-01-31 21:36:00,
2013-01-31 13:51:00,43.1,43.0,30.28,ESE,108,7.0,17.0,100,0.01,,,0.05,weatherlink.com 1.10,2013-01-31 21:51:00,
2013-01-31 14:06:00,43.2,43.0,30.29,SE,144,5.0,11.0,100,0.01,,,0.05,weatherlink.com 1.10,2013-01-31 22:06:00,
2013-01-31 14:21:00,43.2,43.0,30.28,ESE,113,5.0,14.0,100,0.02,,,0.06,weatherlink.com 1.10,2013-01-31 22:21:00,
2013-01-31 14:36:00,43.1,43.0,30.28,ESE,117,4.0,10.0,100,0.01,,,0.06,weatherlink.com 1.10,2013-01-31 22:36:00,
2013-01-31 14:51:00,43.0,43.0,30.28,East,99,5.0,9.0,100,0.01,,,0.06,weatherlink.com 1.10,2013-01-31 22:51:00,
2013-01-31 15:21:00,43.0,43.0,30.28,ESE,105,4.0,10.0,100,0.00,,,0.06,weatherlink.com 1.10,2013-01-31 23:21:00,
2013-01-31 15:37:00,43.1,43.0,30.28,East,84,6.0,10.0,100,0.00,,,0.06,weatherlink.com 1.10,2013-01-31 23:37:00,
2013-01-31 15:51:00,43.2,43.0,30.28,ESE,111,4.0,10.0,100,0.00,,,0.06,weatherlink.com 1.10,2013-01-31 23:51:00,
2013-01-31 16:06:00,43.3,43.0,30.28,ESE,109,8.0,9.0,100,0.00,,,0.06,weatherlink.com 1.10,2013-02-01 00:06:00,
2013-01-31 16:21:00,43.3,43.0,30.28,ESE,104,7.0,8.0,100,0.00,,,0.06,weatherlink.com 1.10,2013-02-01 00:21:00,
2013-01-31 16:36:00,43.2,43.0,30.28,ESE,105,5.0,10.0,100,0.00,,,0.06,weatherlink.com 1.10,2013-02-01 00:36:00,
2013-01-31 16:51:00,43.1,43.0,30.29,ESE,105,7.0,10.0,100,0.00,,,0.06,weatherlink.com 1.10,2013-02-01 00:51:00,
2013-01-31 17:06:00,43.0,43.0,30.28,East,94,6.0,9.0,100,0.00,,,0.06,weatherlink.com 1.10,2013-02-01 01:06:00,
2013-01-31 17:22:00,43.1,43.0,30.28,East,99,5.0,10.0,100,0.00,,,0.06,weatherlink.com 1.10,2013-02-01 01:22:00,
2013-01-31 17:36:00,43.0,43.0,30.28,East,99,7.0,11.0,100,0.00,,,0.06,weatherlink.com 1.10,2013-02-01 01:36:00,
2013-01-31 17:51:00,43.0,43.0,30.28,East,89,6.0,11.0,100,0.00,,,0.06,weatherlink.com 1.10,2013-02-01 01:51:00,
2013-01-31 18:07:00,43.1,43.0,30.28,ESE,102,5.0,12.0,100,0.00,,,0.06,weatherlink.com 1.10,2013-02-01 02:07:00,
2013-01-31 18:21:00,43.1,43.0,30.28,ESE,102,5.0,8.0,100,0.00,,,0.06,weatherlink.com 1.10,2013-02-01 02:21:00,
2013-01-31 18:36:00,43.1,43.0,30.28,ESE,103,4.0,9.0,100,0.00,,,0.06,weatherlink.com 1.10,2013-02-01 02:36:00,
2013-01-31 18:51:00,43.2,43.0,30.28,ESE,106,4.0,7.0,100,0.00,,,0.06,weatherlink.com 1.10,2013-02-01 02:51:00,
2013-01-31 19:07:00,43.2,43.0,30.28,ESE,105,4.0,11.0,100,0.00,,,0.06,weatherlink.com 1.10,2013-02-01 03:07:00,
2013-01-31 19:22:00,43.1,43.0,30.29,SE,134,8.0,9.0,100,0.00,,,0.06,weatherlink.com 1.10,2013-02-01 03:22:00,
2013-01-31 19:37:00,43.2,43.0,30.29,ESE,110,8.0,11.0,100,0.00,,,0.06,weatherlink.com 1.10,2013-02-01 03:37:00,
2013-01-31 19:51:00,43.2,43.0,30.29,ESE,105,4.0,8.0,100,0.00,,,0.06,weatherlink.com 1.10,2013-02-01 03:51:00,
2013-01-31 20:06:00,43.1,43.0,30.29,ESE,111,2.0,10.0,100,0.00,,,0.06,weatherlink.com 1.10,2013-02-01 04:06:00,
2013-01-31 20:22:00,43.1,43.0,30.29,East,101,2.0,9.0,100,0.00,,,0.06,weatherlink.com 1.10,2013-02-01 04:22:00,
2013-01-31 20:37:00,43.1,43.0,30.29,East,98,3.0,7.0,100,0.00,,,0.06,weatherlink.com 1.10,2013-02-01 04:37:00,
2013-01-31 20:51:00,43.1,43.0,30.29,ENE,71,5.0,10.0,100,0.00,,,0.06,weatherlink.com 1.10,2013-02-01 04:51:00,
2013-01-31 21:06:00,43.1,43.0,30.29,East,94,3.0,9.0,100,0.00,,,0.06,weatherlink.com 1.10,2013-02-01 05:06:00,
2013-01-31 21:21:00,42.8,43.0,30.30,ESE,108,4.0,6.0,100,0.00,,,0.06,weatherlink.com 1.10,2013-02-01 05:21:00,
2013-01-31 21:36:00,42.5,43.0,30.30,East,81,5.0,7.0,100,0.00,,,0.06,weatherlink.com 1.10,2013-02-01 05:36:00,
2013-01-31 21:52:00,42.2,42.0,30.30,NE,51,1.0,7.0,100,0.00,,,0.06,weatherlink.com 1.10,2013-02-01 05:52:00,
2013-01-31 22:07:00,42.1,42.0,30.31,ESE,112,1.0,8.0,100,0.00,,,0.06,weatherlink.com 1.10,2013-02-01 06:07:00,
2013-01-31 22:21:00,41.7,42.0,30.31,ESE,109,2.0,3.0,100,0.00,,,0.06,weatherlink.com 1.10,2013-02-01 06:21:00,
2013-01-31 22:37:00,41.5,42.0,30.31,SSE,152,0.0,1.0,100,0.00,,,0.06,weatherlink.com 1.10,2013-02-01 06:37:00,
2013-01-31 22:51:00,41.4,41.0,30.31,SSE,152,0.0,1.0,100,0.00,,,0.06,weatherlink.com 1.10,2013-02-01 06:51:00,
2013-01-31 23:06:00,41.4,41.0,30.31,SSE,152,0.0,0.0,100,0.00,,,0.06,weatherlink.com 1.10,2013-02-01 07:06:00,
2013-01-31 23:21:00,41.2,41.0,30.31,SSE,152,0.0,0.0,100,0.00,,,0.06,weatherlink.com 1.10,2013-02-01 07:21:00,
2013-01-31 23:37:00,41.1,41.0,30.32,ENE,62,0.0,4.0,100,0.00,,,0.06,weatherlink.com 1.10,2013-02-01 07:37:00,
2013-01-31 23:51:00,41.3,41.0,30.32,ENE,62,2.0,3.0,100,0.00,,,0.06,weatherlink.com 1.10,2013-02-01 07:51:00,